Time;durP1;ratioP1;P1;durP2;ratioP2;P2;SDS_P1;SDS_P2;PMS_P1;PMS_P2;Temp;Humidity;BMP_temperature;BMP_pressure;BME280_temperature;BME280_humidity;BME280_pressure;Samples;Min_cycle;Max_cycle;Signal;HPM_P1;HPM_P2
2021/08/05 00:01:55;;;;;;;8.25;4.22;;;;;;;14.44;82.13;95498.08;1787042;80;20999;-59
2021/08/05 00:04:22;;;;;;;6.00;4.15;;;;;;;14.48;82.11;95497.88;1780036;80;20987;-59
2021/08/05 00:06:48;;;;;;;4.75;4.25;;;;;;;14.47;82.09;95500.14;1786727;80;20979;-59
2021/08/05 00:09:15;;;;;;;5.12;4.05;;;;;;;14.56;81.88;95506.08;1787028;80;21484;-59
2021/08/05 00:11:41;;;;;;;6.78;4.22;;;;;;;14.55;81.56;95506.55;1787022;80;21042;-59
2021/08/05 00:14:08;;;;;;;4.53;4.03;;;;;;;14.53;81.48;95505.73;1786869;80;20995;-59
2021/08/05 00:16:35;;;;;;;6.58;4.30;;;;;;;14.53;82.08;95496.87;1787129;80;21030;-59
2021/08/05 00:19:02;;;;;;;5.70;4.03;;;;;;;14.53;81.73;95496.87;1787191;80;20999;-59
2021/08/05 00:21:29;;;;;;;5.10;4.28;;;;;;;14.58;81.97;95487.84;1787010;80;21017;-59
2021/08/05 00:23:55;;;;;;;5.75;4.20;;;;;;;14.58;81.99;95489.17;1795118;80;21042;-59
2021/08/05 00:26:23;;;;;;;7.28;4.40;;;;;;;14.56;81.09;95481.71;1795637;80;21006;-59
2021/08/05 00:28:49;;;;;;;6.10;4.62;;;;;;;14.60;81.21;95480.69;1795348;80;21483;-59
2021/08/05 00:31:17;;;;;;;6.33;4.40;;;;;;;14.55;80.85;95478.66;1795484;80;20938;-59
2021/08/05 00:33:44;;;;;;;4.85;4.37;;;;;;;14.62;81.39;95484.63;1795201;80;21473;-59
2021/08/05 00:36:11;;;;;;;4.25;3.75;;;;;;;14.58;81.10;95486.98;1795567;80;20951;-59
2021/08/05 00:38:38;;;;;;;7.00;4.00;;;;;;;14.52;80.89;95490.70;1795352;80;21516;-59
2021/08/05 00:41:05;;;;;;;5.87;4.90;;;;;;;14.37;81.46;95488.12;1795227;80;21046;-59
2021/08/05 00:43:34;;;;;;;7.05;5.17;;;;;;;14.42;81.67;95481.33;1795386;80;21053;-59
2021/08/05 00:46:02;;;;;;;5.85;5.25;;;;;;;14.35;82.07;95474.50;1764585;80;21014;-59
2021/08/05 00:48:29;;;;;;;5.97;4.45;;;;;;;14.34;81.84;95479.38;1795326;80;21500;-59
2021/08/05 00:50:58;;;;;;;9.13;4.78;;;;;;;14.28;81.69;95471.17;1795578;80;20998;-59
2021/08/05 00:53:27;;;;;;;5.62;5.00;;;;;;;14.20;81.85;95471.91;1795448;80;21026;-59
2021/08/05 00:55:56;;;;;;;5.33;4.53;;;;;;;14.12;82.13;95464.22;1795186;80;21491;-59
2021/08/05 00:58:22;;;;;;;6.45;5.47;;;;;;;14.09;82.43;95466.98;1795397;80;21003;-59
2021/08/05 01:00:55;;;;;;;7.58;5.33;;;;;;;14.08;83.02;95470.54;1795191;80;21122;-59
2021/08/05 01:03:26;;;;;;;6.17;4.97;;;;;;;14.10;83.07;95458.56;1795522;80;20979;-59
2021/08/05 01:06:23;;;;;;;10.15;5.47;;;;;;;14.09;83.63;95453.72;1795311;80;21010;-59
2021/08/05 01:09:28;;;;;;;6.95;4.90;;;;;;;14.11;83.54;95439.06;1795455;80;21527;-59
2021/08/05 01:12:03;;;;;;;8.28;5.28;;;;;;;14.10;83.55;95438.66;1795535;80;20979;-59
2021/08/05 01:14:35;;;;;;;6.22;5.42;;;;;;;14.15;83.02;95432.73;1795523;80;21006;-59
2021/08/05 01:17:04;;;;;;;6.35;4.95;;;;;;;14.20;82.74;95434.30;1795520;80;20963;-59
2021/08/05 01:19:43;;;;;;;7.47;4.70;;;;;;;14.25;82.57;95425.71;1795470;80;21031;-59
2021/08/05 01:22:19;;;;;;;6.83;5.10;;;;;;;14.25;82.69;95429.69;1795439;80;21511;-59
2021/08/05 01:24:57;;;;;;;5.67;4.70;;;;;;;14.21;83.79;95423.22;1795298;80;21039;-59
2021/08/05 01:27:25;;;;;;;7.20;4.60;;;;;;;14.28;83.68;95413.66;1795757;80;21015;-59
2021/08/05 01:29:55;;;;;;;6.65;4.60;;;;;;;14.36;83.78;95410.72;1795215;80;21030;-59
2021/08/05 01:32:22;;;;;;;7.10;5.08;;;;;;;14.46;83.58;95404.62;1764467;80;21014;-59
2021/08/05 01:34:48;;;;;;;8.05;5.08;;;;;;;14.55;83.22;95399.02;1795489;80;21042;-59
2021/08/05 01:37:18;;;;;;;5.97;4.60;;;;;;;14.58;82.55;95384.76;1795078;80;20990;-59
2021/08/05 01:39:45;;;;;;;6.05;5.12;;;;;;;14.61;82.55;95378.00;1795465;80;21006;-59
2021/08/05 01:42:18;;;;;;;6.42;4.60;;;;;;;14.64;82.86;95380.09;1795719;80;21010;-59
2021/08/05 01:44:49;;;;;;;8.33;4.72;;;;;;;14.66;82.65;95374.23;1795559;80;21006;-59
2021/08/05 01:47:15;;;;;;;7.85;4.62;;;;;;;14.68;82.53;95367.55;1764668;80;20971;-59
2021/08/05 01:49:42;;;;;;;6.87;5.80;;;;;;;14.67;82.32;95367.16;1795561;80;21003;-59
2021/08/05 01:52:12;;;;;;;5.00;4.47;;;;;;;14.62;81.86;95366.47;1794875;80;21078;-59
2021/08/05 01:54:40;;;;;;;5.62;4.85;;;;;;;14.60;82.04;95365.19;1795493;80;21076;-59
2021/08/05 01:57:10;;;;;;;6.58;4.97;;;;;;;14.67;82.20;95363.17;1795575;80;21441;-59
2021/08/05 01:59:37;;;;;;;6.65;4.62;;;;;;;14.72;82.21;95354.57;1795121;80;20998;-59
2021/08/05 02:02:07;;;;;;;5.55;4.60;;;;;;;14.65;81.83;95349.09;1795549;80;21457;-59
2021/08/05 02:05:07;;;;;;;4.47;4.03;;;;;;;14.69;81.84;95348.92;1795378;80;21006;-59
2021/08/05 02:07:51;;;;;;;5.28;4.80;;;;;;;14.63;81.63;95343.82;1795443;80;21018;-59
2021/08/05 02:10:34;;;;;;;7.85;4.58;;;;;;;14.51;82.29;95345.58;1795364;80;21122;-59
2021/08/05 02:13:26;;;;;;;6.10;5.55;;;;;;;14.50;82.40;95342.53;1795471;80;21038;-59
2021/08/05 02:15:57;;;;;;;6.92;5.50;;;;;;;14.42;82.49;95346.81;1795829;80;21066;-59
2021/08/05 02:18:30;;;;;;;7.00;5.80;;;;;;;14.43;82.97;95345.02;1795441;80;21002;-59
2021/08/05 02:20:58;;;;;;;6.10;5.10;;;;;;;14.40;82.83;95345.13;1764268;80;21085;-59
2021/08/05 02:23:28;;;;;;;7.62;6.20;;;;;;;14.33;82.48;95354.24;1795532;80;20983;-59
2021/08/05 02:25:56;;;;;;;7.40;5.45;;;;;;;14.31;82.38;95354.75;1795364;80;21073;-59
2021/08/05 02:28:25;;;;;;;6.97;4.97;;;;;;;14.28;82.66;95352.61;1795172;80;21121;-59
2021/08/05 02:30:54;;;;;;;6.90;5.87;;;;;;;14.26;83.32;95350.50;1795523;80;21519;-59
2021/08/05 02:33:23;;;;;;;6.50;5.00;;;;;;;14.21;83.04;95343.61;1795361;80;21009;-59
2021/08/05 02:35:52;;;;;;;6.58;5.83;;;;;;;14.10;83.57;95342.69;1795337;80;21026;-59
2021/08/05 02:38:19;;;;;;;6.40;5.58;;;;;;;14.09;83.33;95331.68;1795172;80;21050;-59
2021/08/05 02:40:49;;;;;;;6.72;5.80;;;;;;;14.10;83.63;95332.54;1795044;80;20990;-59
2021/08/05 02:43:17;;;;;;;8.98;5.85;;;;;;;14.09;83.21;95333.01;1795475;80;21034;-59
2021/08/05 02:45:47;;;;;;;7.28;5.78;;;;;;;14.07;83.10;95336.17;1795435;80;21006;-59
2021/08/05 02:48:15;;;;;;;6.60;5.83;;;;;;;14.03;83.60;95334.54;1764120;80;21006;-59
2021/08/05 02:50:42;;;;;;;13.03;6.30;;;;;;;14.02;83.68;95340.78;1795472;80;20986;-59
2021/08/05 02:53:10;;;;;;;5.97;5.05;;;;;;;14.02;83.97;95336.33;1795328;80;21006;-59
2021/08/05 02:55:38;;;;;;;10.18;5.75;;;;;;;14.00;83.94;95339.96;1795435;80;21034;-59
2021/08/05 02:58:05;;;;;;;6.25;5.00;;;;;;;13.96;83.21;95343.63;1795511;80;20994;-59
2021/08/05 03:00:32;;;;;;;6.20;5.45;;;;;;;13.98;83.40;95337.81;1795347;80;21515;-59
2021/08/05 03:02:59;;;;;;;6.22;5.03;;;;;;;14.06;83.67;95335.75;1795307;80;20979;-59
2021/08/05 03:05:26;;;;;;;6.25;4.97;;;;;;;14.05;83.23;95334.89;1795379;80;21002;-59
2021/08/05 03:07:52;;;;;;;6.25;4.90;;;;;;;14.03;83.89;95329.23;1795292;80;20986;-59
2021/08/05 03:10:19;;;;;;;5.35;4.55;;;;;;;14.01;83.79;95321.35;1795745;80;20983;-59
2021/08/05 03:12:45;;;;;;;4.97;4.45;;;;;;;14.04;83.90;95323.88;1795371;80;21050;-59
2021/08/05 03:15:12;;;;;;;11.45;5.28;;;;;;;14.07;83.60;95310.97;1795475;80;21006;-59
2021/08/05 03:17:39;;;;;;;8.25;5.58;;;;;;;14.11;83.67;95303.31;1795529;80;21018;-59
2021/08/05 03:20:08;;;;;;;7.08;4.92;;;;;;;14.20;83.67;95299.44;1795415;80;21477;-59
2021/08/05 03:22:36;;;;;;;10.98;5.20;;;;;;;14.26;83.63;95293.45;1795019;80;20991;-59
2021/08/05 03:25:03;;;;;;;8.28;5.40;;;;;;;14.24;83.77;95299.73;1790658;80;21468;-59
2021/08/05 03:27:30;;;;;;;5.60;4.55;;;;;;;14.22;83.27;95289.64;1795524;80;21492;-59
2021/08/05 03:29:56;;;;;;;5.12;4.33;;;;;;;14.20;83.18;95287.03;1795270;80;20990;-59
2021/08/05 03:32:23;;;;;;;5.62;4.80;;;;;;;14.24;83.32;95291.77;1795524;80;21453;-59
2021/08/05 03:34:49;;;;;;;7.00;4.60;;;;;;;14.26;83.02;95286.81;1795459;80;21578;-59
2021/08/05 03:37:15;;;;;;;6.30;5.05;;;;;;;14.28;82.99;95286.73;1795254;80;21030;-59
2021/08/05 03:39:42;;;;;;;7.55;5.05;;;;;;;14.27;83.08;95281.90;1795484;80;21049;-59
2021/08/05 03:42:08;;;;;;;7.92;5.05;;;;;;;14.35;83.16;95284.73;1795734;80;21007;-59
2021/08/05 03:44:35;;;;;;;6.47;4.87;;;;;;;14.41;83.26;95284.04;1795209;80;21003;-59
2021/08/05 03:47:01;;;;;;;7.10;4.97;;;;;;;14.48;83.08;95275.36;1795469;80;21014;-59
2021/08/05 03:49:28;;;;;;;7.17;5.30;;;;;;;14.50;82.57;95272.19;1795530;80;21002;-59
2021/08/05 03:51:54;;;;;;;6.75;4.87;;;;;;;14.53;82.50;95273.86;1795459;80;21006;-59
2021/08/05 03:54:20;;;;;;;6.22;5.03;;;;;;;14.56;82.31;95272.44;1795543;80;21495;-59
2021/08/05 03:56:46;;;;;;;10.23;5.17;;;;;;;14.52;81.97;95269.48;1795415;80;21025;-59
2021/08/05 03:59:13;;;;;;;7.15;5.37;;;;;;;14.50;82.14;95266.41;1795543;80;20964;-59
2021/08/05 04:01:40;;;;;;;6.80;5.47;;;;;;;14.50;82.72;95258.91;1795233;80;21077;-59
2021/08/05 04:04:06;;;;;;;12.05;5.53;;;;;;;14.51;82.77;95252.66;1795470;80;21086;-59
2021/08/05 04:06:33;;;;;;;7.78;5.50;;;;;;;14.55;82.76;95258.77;1795026;80;21046;-59
2021/08/05 04:08:59;;;;;;;6.62;5.70;;;;;;;14.49;82.60;95251.89;1795675;80;21042;-59
2021/08/05 04:11:26;;;;;;;8.55;6.28;;;;;;;14.48;83.01;95243.50;1795269;80;21013;-59
2021/08/05 04:13:52;;;;;;;10.00;6.58;;;;;;;14.52;82.75;95242.47;1795093;80;21059;-59
2021/08/05 04:16:19;;;;;;;8.10;6.87;;;;;;;14.49;82.51;95239.94;1795424;80;21485;-59
2021/08/05 04:18:45;;;;;;;7.50;6.40;;;;;;;14.54;82.80;95235.34;1795190;80;21066;-59
2021/08/05 04:21:12;;;;;;;7.42;5.83;;;;;;;14.51;82.54;95238.06;1795228;80;21002;-58
2021/08/05 04:23:38;;;;;;;7.40;6.47;;;;;;;14.43;82.34;95234.38;1792243;80;21046;-59
2021/08/05 04:26:04;;;;;;;9.55;6.70;;;;;;;14.38;83.19;95235.03;1787058;80;21002;-59
2021/08/05 04:28:31;;;;;;;8.35;6.70;;;;;;;14.41;83.57;95230.95;1787139;80;21003;-59
2021/08/05 04:30:58;;;;;;;6.53;5.83;;;;;;;14.42;83.37;95227.83;1786995;80;20999;-59
2021/08/05 04:33:24;;;;;;;8.75;6.33;;;;;;;14.42;83.36;95226.50;1786967;80;20984;-59
2021/08/05 04:35:51;;;;;;;7.42;6.15;;;;;;;14.44;83.05;95219.34;1786780;80;21541;-59
2021/08/05 04:38:17;;;;;;;6.78;5.58;;;;;;;14.48;82.92;95217.81;1787206;80;20999;-59
2021/08/05 04:40:45;;;;;;;9.13;6.28;;;;;;;14.47;82.69;95212.59;1786719;80;21062;-59
2021/08/05 04:43:11;;;;;;;9.63;6.25;;;;;;;14.55;82.66;95209.66;1787302;80;21048;-59
2021/08/05 04:45:38;;;;;;;9.43;7.12;;;;;;;14.64;83.15;95214.13;1787012;80;21485;-59
2021/08/05 04:48:07;;;;;;;11.48;7.55;;;;;;;14.80;83.35;95201.55;1787152;80;21512;-60
2021/08/05 04:50:37;;;;;;;7.40;5.97;;;;;;;14.98;83.36;95206.09;1787196;80;21113;-60
2021/08/05 04:53:06;;;;;;;11.78;6.20;;;;;;;15.14;83.16;95195.23;1786852;80;21078;-59
2021/08/05 04:55:33;;;;;;;6.65;5.70;;;;;;;15.35;83.04;95193.90;1787200;80;21010;-59
2021/08/05 04:58:06;;;;;;;6.10;5.15;;;;;;;15.55;82.55;95183.72;1787253;80;21125;-59
2021/08/05 05:00:36;;;;;;;7.53;5.53;;;;;;;15.72;81.96;95180.30;1787057;80;21062;-59
2021/08/05 05:03:03;;;;;;;9.45;5.70;;;;;;;15.86;81.38;95175.70;1787717;80;20983;-59
2021/08/05 05:05:30;;;;;;;8.13;5.53;;;;;;;16.05;81.53;95171.27;1786929;80;21069;-59
2021/08/05 05:07:58;;;;;;;6.72;5.50;;;;;;;16.26;81.07;95175.18;1787241;80;21038;-59
2021/08/05 05:10:25;;;;;;;6.67;5.72;;;;;;;16.42;80.27;95170.83;1780255;80;20991;-59
2021/08/05 05:12:51;;;;;;;9.38;5.05;;;;;;;16.56;77.72;95169.70;1787437;80;20991;-59
2021/08/05 05:15:19;;;;;;;7.45;5.47;;;;;;;16.71;78.30;95166.76;1786791;80;21066;-59
2021/08/05 05:17:47;;;;;;;15.15;6.25;;;;;;;16.84;78.10;95161.23;1780367;80;20947;-59
2021/08/05 05:20:14;;;;;;;16.42;7.08;;;;;;;17.00;77.71;95158.65;1787225;80;20983;-59
2021/08/05 05:22:40;;;;;;;12.82;6.97;;;;;;;17.10;76.99;95152.38;1786776;80;21030;-59
2021/08/05 05:25:10;;;;;;;10.78;6.65;;;;;;;17.24;77.03;95131.22;1793942;80;21500;-59
2021/08/05 05:27:37;;;;;;;13.32;6.33;;;;;;;17.37;75.03;95122.10;1795511;80;21037;-60
2021/08/05 05:30:06;;;;;;;8.80;6.78;;;;;;;17.50;74.89;95107.64;1795392;80;21054;-59
2021/08/05 05:32:33;;;;;;;8.60;6.67;;;;;;;17.61;74.79;95102.58;1795609;80;20991;-59
2021/08/05 05:35:00;;;;;;;11.70;6.95;;;;;;;17.70;73.84;95090.56;1795260;80;21101;-60
2021/08/05 05:37:28;;;;;;;10.37;6.93;;;;;;;17.85;73.62;95106.23;1795216;80;21018;-60
2021/08/05 05:39:56;;;;;;;16.70;8.65;;;;;;;17.87;73.05;95107.87;1795554;80;21453;-59
2021/08/05 05:42:26;;;;;;;16.12;10.32;;;;;;;17.93;74.48;95098.19;1795351;80;21519;-60
2021/08/05 05:44:52;;;;;;;11.57;9.75;;;;;;;18.03;74.26;95092.34;1795501;80;21003;-60
2021/08/05 05:47:19;;;;;;;11.70;9.88;;;;;;;18.12;74.10;95089.17;1795479;80;20999;-60
2021/08/05 05:49:46;;;;;;;8.50;7.30;;;;;;;18.20;72.90;95088.26;1795394;80;20986;-60
2021/08/05 05:52:14;;;;;;;10.10;8.43;;;;;;;18.26;72.11;95085.22;1795606;80;20979;-59
2021/08/05 05:54:41;;;;;;;8.88;7.33;;;;;;;18.28;71.80;95083.33;1795556;80;21048;-60
2021/08/05 05:57:08;;;;;;;10.38;7.87;;;;;;;18.33;71.49;95076.40;1795145;80;21046;-59
2021/08/05 05:59:35;;;;;;;11.68;9.88;;;;;;;18.40;71.57;95072.44;1795539;80;21021;-60
2021/08/05 06:02:01;;;;;;;12.47;7.40;;;;;;;18.55;71.77;95064.01;1795575;80;20995;-60
2021/08/05 06:04:28;;;;;;;7.58;6.65;;;;;;;18.66;71.93;95060.70;1795323;80;21003;-60
2021/08/05 06:06:55;;;;;;;7.70;6.37;;;;;;;18.77;71.05;95056.94;1764180;80;20998;-59
2021/08/05 06:09:22;;;;;;;8.88;5.42;;;;;;;18.90;71.01;95059.73;1795422;80;21024;-59
2021/08/05 06:11:48;;;;;;;9.13;5.78;;;;;;;19.00;70.96;95054.25;1795446;80;21003;-59
2021/08/05 06:14:15;;;;;;;7.05;6.17;;;;;;;19.12;70.45;95048.61;1795679;80;20975;-59
2021/08/05 06:16:41;;;;;;;6.60;6.00;;;;;;;19.28;70.30;95041.84;1795327;80;21118;-59
2021/08/05 06:19:09;;;;;;;10.03;7.10;;;;;;;19.39;70.21;95039.37;1795361;80;21503;-59
2021/08/05 06:21:35;;;;;;;8.78;7.17;;;;;;;19.49;69.85;95029.82;1795216;80;20999;-59
2021/08/05 06:24:02;;;;;;;8.03;6.83;;;;;;;19.61;69.54;95024.19;1795081;80;21553;-59
2021/08/05 06:26:28;;;;;;;11.50;7.37;;;;;;;19.69;68.41;95023.24;1795274;80;21026;-59
2021/08/05 06:28:55;;;;;;;10.05;7.25;;;;;;;19.72;68.19;95016.84;1795756;80;20983;-59
2021/08/05 06:31:22;;;;;;;12.98;6.83;;;;;;;19.84;69.09;95019.59;1795105;80;21480;-59
2021/08/05 06:33:51;;;;;;;9.75;6.80;;;;;;;19.96;68.11;95007.69;1795454;80;21543;-60
2021/08/05 06:36:22;;;;;;;9.23;6.72;;;;;;;20.04;67.71;95009.41;1795643;80;21504;-60
2021/08/05 06:38:50;;;;;;;9.00;7.63;;;;;;;20.19;67.62;95007.55;1795228;80;21046;-60
2021/08/05 06:41:17;;;;;;;7.72;6.87;;;;;;;20.31;67.75;94997.38;1765123;80;21506;-60
2021/08/05 06:43:43;;;;;;;7.47;6.22;;;;;;;20.48;67.66;94994.88;1795540;80;21457;-59
2021/08/05 06:46:10;;;;;;;8.43;6.65;;;;;;;20.63;66.38;94996.56;1795062;80;21042;-59
2021/08/05 06:48:37;;;;;;;12.75;6.95;;;;;;;20.63;66.37;94992.54;1795660;80;21006;-60
2021/08/05 06:51:04;;;;;;;7.70;6.95;;;;;;;20.62;66.76;94995.34;1795612;80;20998;-60
2021/08/05 06:53:30;;;;;;;10.60;6.95;;;;;;;20.73;67.13;94985.58;1795239;80;21477;-59
2021/08/05 06:55:57;;;;;;;7.97;6.95;;;;;;;20.93;66.62;94986.90;1795633;80;21070;-60
2021/08/05 06:58:23;;;;;;;8.33;6.92;;;;;;;20.94;66.62;94979.70;1795177;80;20991;-59
2021/08/05 07:00:50;;;;;;;8.35;6.72;;;;;;;21.08;66.68;94974.25;1795422;80;21038;-60
2021/08/05 07:03:16;;;;;;;8.05;7.05;;;;;;;21.15;65.61;94970.17;1795624;80;21528;-60
2021/08/05 07:05:43;;;;;;;8.45;6.85;;;;;;;21.25;66.93;94973.56;1795608;80;21003;-60
2021/08/05 07:08:10;;;;;;;9.40;7.55;;;;;;;21.42;66.09;94969.70;1795207;80;20994;-60
2021/08/05 07:10:36;;;;;;;8.75;7.58;;;;;;;21.38;66.13;94964.55;1795434;80;21014;-60
2021/08/05 07:13:05;;;;;;;8.03;7.17;;;;;;;21.45;66.65;94962.30;1795139;80;21018;-60
2021/08/05 07:15:32;;;;;;;9.03;6.90;;;;;;;21.53;66.42;94955.04;1795398;80;20999;-60
2021/08/05 07:17:59;;;;;;;11.70;7.17;;;;;;;21.61;65.73;94964.73;1795488;80;20999;-60
2021/08/05 07:20:26;;;;;;;9.13;7.53;;;;;;;21.59;66.02;94959.46;1795256;80;21086;-60
2021/08/05 07:22:52;;;;;;;7.87;7.08;;;;;;;21.59;66.57;94959.95;1795316;80;20979;-60
2021/08/05 07:25:20;;;;;;;7.87;7.17;;;;;;;21.67;66.30;94952.23;1757574;80;20987;-60
2021/08/05 07:27:48;;;;;;;11.05;7.47;;;;;;;21.79;65.83;94954.48;1787075;80;21468;-60
2021/08/05 07:30:16;;;;;;;7.50;6.78;;;;;;;21.86;65.62;94950.88;1787591;80;21437;-60
2021/08/05 07:32:43;;;;;;;8.20;7.40;;;;;;;21.95;64.96;94954.23;1787067;80;21042;-60
2021/08/05 07:35:10;;;;;;;7.65;6.95;;;;;;;22.04;65.01;94948.16;1787139;80;21086;-60
2021/08/05 07:37:38;;;;;;;10.23;6.83;;;;;;;22.12;64.18;94938.19;1787018;80;21011;-60
2021/08/05 07:40:07;;;;;;;7.40;6.70;;;;;;;22.16;62.77;94935.16;1787093;80;21496;-60
2021/08/05 07:42:34;;;;;;;8.10;6.72;;;;;;;22.25;63.47;94934.52;1787007;80;21007;-60
2021/08/05 07:45:00;;;;;;;8.55;7.05;;;;;;;22.29;62.30;94938.31;1787178;80;21054;-60
2021/08/05 07:47:28;;;;;;;7.42;6.60;;;;;;;22.35;63.06;94934.69;1787209;80;20964;-60
2021/08/05 07:49:54;;;;;;;8.15;7.03;;;;;;;22.46;63.23;94929.34;1787180;80;21082;-60
2021/08/05 07:52:22;;;;;;;7.65;6.87;;;;;;;22.57;63.69;94916.91;1786805;80;21086;-60
2021/08/05 07:54:48;;;;;;;7.75;6.62;;;;;;;22.66;63.29;94912.17;1787019;80;21067;-59
2021/08/05 07:57:15;;;;;;;8.80;7.42;;;;;;;22.77;61.57;94917.56;1787101;80;21525;-60
2021/08/05 07:59:45;;;;;;;7.65;6.85;;;;;;;22.87;61.67;94907.80;1786756;80;21073;-60
2021/08/05 08:02:13;;;;;;;6.97;6.12;;;;;;;22.89;62.21;94913.08;1787065;80;21003;-60
2021/08/05 08:04:41;;;;;;;7.33;6.62;;;;;;;22.95;60.47;94902.31;1787081;80;21022;-60
2021/08/05 08:07:08;;;;;;;8.05;6.67;;;;;;;23.02;61.04;94895.02;1787160;80;21037;-59
2021/08/05 08:09:34;;;;;;;7.80;7.03;;;;;;;23.18;62.52;94889.27;1786956;80;20987;-60
2021/08/05 08:12:01;;;;;;;8.05;6.90;;;;;;;23.33;62.74;94888.06;1787164;80;21011;-60
2021/08/05 08:14:28;;;;;;;8.88;7.35;;;;;;;23.51;60.72;94884.84;1787116;80;21038;-60
2021/08/05 08:16:54;;;;;;;10.58;6.70;;;;;;;23.61;61.99;94879.11;1786945;80;20991;-60
2021/08/05 08:19:21;;;;;;;9.28;7.47;;;;;;;23.74;59.90;94866.37;1754205;80;21181;-60
2021/08/05 08:21:47;;;;;;;10.45;8.00;;;;;;;23.88;61.10;94872.45;1787099;80;21003;-60
2021/08/05 08:24:14;;;;;;;9.38;7.50;;;;;;;24.11;60.82;94867.83;1786506;80;21067;-60
2021/08/05 08:26:41;;;;;;;10.78;7.83;;;;;;;24.27;61.53;94849.40;1787133;80;21006;-60
2021/08/05 08:29:08;;;;;;;7.85;7.15;;;;;;;24.40;61.03;94854.61;1780060;80;21429;-59
2021/08/05 08:31:35;;;;;;;9.10;7.15;;;;;;;24.48;60.98;94849.94;1786984;80;21000;-60
2021/08/05 08:34:01;;;;;;;9.55;7.90;;;;;;;24.54;60.54;94841.31;1787347;80;21042;-60
2021/08/05 08:36:28;;;;;;;10.35;7.25;;;;;;;24.69;60.11;94844.53;1787236;80;20999;-60
2021/08/05 08:38:58;;;;;;;11.20;8.15;;;;;;;24.93;61.04;94845.60;1786463;80;21058;-60
2021/08/05 08:41:24;;;;;;;8.95;8.05;;;;;;;25.17;61.00;94842.61;1787168;80;21058;-60
2021/08/05 08:43:51;;;;;;;9.18;8.20;;;;;;;25.23;60.15;94848.33;1786734;80;21019;-60
2021/08/05 08:46:21;;;;;;;16.48;9.95;;;;;;;25.08;60.08;94844.76;1786843;80;21039;-60
2021/08/05 08:48:53;;;;;;;11.60;7.90;;;;;;;24.94;60.17;94837.35;1780248;80;21034;-60
2021/08/05 08:51:20;;;;;;;9.33;8.00;;;;;;;24.86;60.43;94833.13;1787306;80;21018;-59
2021/08/05 08:53:50;;;;;;;8.75;7.78;;;;;;;24.75;60.53;94835.92;1786934;80;21484;-60
2021/08/05 08:56:22;;;;;;;9.28;8.33;;;;;;;24.75;61.66;94834.58;1787168;80;21026;-60
2021/08/05 08:58:50;;;;;;;9.55;8.50;;;;;;;24.84;61.65;94831.91;1786974;80;21003;-60
2021/08/05 09:01:17;;;;;;;11.90;8.40;;;;;;;24.74;60.94;94819.36;1780239;80;20998;-60
2021/08/05 09:03:43;;;;;;;12.00;9.03;;;;;;;24.63;61.45;94824.34;1787248;80;21445;-60
2021/08/05 09:06:10;;;;;;;12.60;9.20;;;;;;;24.60;61.83;94826.81;1786964;80;20988;-60
2021/08/05 09:08:41;;;;;;;15.93;8.70;;;;;;;24.65;61.78;94835.86;1787186;80;21006;-60
2021/08/05 09:11:09;;;;;;;8.58;7.78;;;;;;;24.64;61.05;94834.13;1787070;80;21006;-60
2021/08/05 09:13:36;;;;;;;19.77;9.55;;;;;;;24.71;61.59;94834.47;1786874;80;21075;-60
2021/08/05 09:16:03;;;;;;;9.93;8.80;;;;;;;24.88;61.85;94837.91;1787356;80;20967;-60
2021/08/05 09:18:36;;;;;;;12.85;9.18;;;;;;;24.95;60.98;94817.49;1780092;80;21460;-60
2021/08/05 09:21:13;;;;;;;9.93;8.93;;;;;;;25.19;60.93;94804.19;1786936;80;21489;-60
2021/08/05 09:24:09;;;;;;;12.10;8.75;;;;;;;25.14;59.63;94790.22;1786903;80;20986;-60
2021/08/05 09:26:47;;;;;;;9.35;8.38;;;;;;;25.14;59.67;94783.47;1785360;80;21011;-60
2021/08/05 09:29:23;;;;;;;12.47;8.33;;;;;;;25.47;59.74;94786.36;1787193;80;21031;-60
2021/08/05 09:31:57;;;;;;;8.88;7.40;;;;;;;25.51;59.58;94791.00;1786998;80;21500;-60
2021/08/05 09:34:44;;;;;;;9.70;7.65;;;;;;;25.72;59.25;94781.43;1787241;80;21425;-60
2021/08/05 09:37:19;;;;;;;10.40;7.95;;;;;;;26.15;60.50;94778.84;1787079;80;21462;-60
2021/08/05 09:39:45;;;;;;;10.00;7.15;;;;;;;26.33;58.58;94753.64;1784938;80;20971;-60
2021/08/05 09:42:14;;;;;;;8.18;6.92;;;;;;;26.34;58.45;94745.02;1787189;80;21023;-60
2021/08/05 09:44:46;;;;;;;10.00;7.40;;;;;;;26.41;58.56;94762.86;1787200;80;21014;-60
2021/08/05 09:47:17;;;;;;;10.03;6.72;;;;;;;26.47;58.88;94786.13;1787436;80;21006;-60
2021/08/05 09:49:51;;;;;;;7.17;6.08;;;;;;;26.69;55.40;94794.97;1786198;80;21018;-60
2021/08/05 09:52:32;;;;;;;8.98;7.03;;;;;;;26.66;56.73;94819.58;1787234;80;21501;-60
2021/08/05 09:55:10;;;;;;;7.75;6.75;;;;;;;26.53;58.46;94832.06;1787175;80;20979;-60
2021/08/05 09:57:41;;;;;;;9.00;6.33;;;;;;;26.23;56.61;94827.64;1787200;80;20999;-60
2021/08/05 10:00:14;;;;;;;9.45;6.47;;;;;;;25.89;57.36;94837.02;1787376;80;20983;-60
2021/08/05 10:02:46;;;;;;;9.55;6.40;;;;;;;25.64;58.12;94856.42;1786825;80;21011;-60
2021/08/05 10:05:23;;;;;;;8.25;6.78;;;;;;;25.40;59.15;94867.56;1787274;80;20975;-60
2021/08/05 10:07:53;;;;;;;9.25;6.83;;;;;;;25.16;59.62;94875.97;1787124;80;21003;-60
2021/08/05 10:10:27;;;;;;;13.83;7.53;;;;;;;24.84;61.65;94882.32;1786881;80;21080;-60
2021/08/05 10:12:59;;;;;;;9.30;7.50;;;;;;;24.58;63.65;94867.04;1785869;80;21034;-59
2021/08/05 10:15:29;;;;;;;9.13;7.00;;;;;;;24.38;66.03;94835.00;1787409;80;20947;-60
2021/08/05 10:17:59;;;;;;;10.53;7.35;;;;;;;24.28;66.28;94819.25;1786789;80;21067;-59
2021/08/05 10:20:29;;;;;;;15.75;6.65;;;;;;;24.27;66.39;94825.14;1754229;80;20975;-60
2021/08/05 10:22:57;;;;;;;10.18;6.72;;;;;;;24.18;65.77;94820.02;1787164;80;21034;-60
2021/08/05 10:25:26;;;;;;;10.43;6.37;;;;;;;24.17;66.25;94827.76;1789989;80;21022;-60
2021/08/05 10:27:56;;;;;;;12.75;6.58;;;;;;;24.13;67.25;94815.52;1795474;80;21014;-60
2021/08/05 10:30:23;;;;;;;7.67;6.42;;;;;;;24.08;67.59;94825.83;1795366;80;20958;-60
2021/08/05 10:32:53;;;;;;;8.85;6.97;;;;;;;24.13;68.61;94833.03;1795170;80;21076;-60
2021/08/05 10:35:21;;;;;;;7.62;5.67;;;;;;;24.23;69.68;94833.11;1795430;80;21002;-60
2021/08/05 10:37:50;;;;;;;11.25;7.30;;;;;;;24.25;69.43;94814.12;1795338;80;21033;-60
2021/08/05 10:40:17;;;;;;;10.28;6.97;;;;;;;24.30;69.75;94801.95;1795344;80;21010;-60
2021/08/05 10:42:46;;;;;;;10.58;6.15;;;;;;;24.41;69.18;94792.94;1795553;80;21026;-60
2021/08/05 10:45:15;;;;;;;8.40;7.08;;;;;;;24.66;69.06;94792.20;1795616;80;21476;-60
2021/08/05 10:47:46;;;;;;;10.98;6.83;;;;;;;24.98;68.68;94794.78;1795461;80;21106;-60
2021/08/05 10:50:17;;;;;;;10.95;6.50;;;;;;;25.52;68.49;94795.40;1794965;80;20994;-60
2021/08/05 10:52:57;;;;;;;17.10;7.00;;;;;;;26.31;67.31;94796.70;1795119;80;21082;-60
2021/08/05 10:55:34;;;;;;;11.53;5.85;;;;;;;26.76;62.17;94798.77;1795274;80;21058;-60
2021/08/05 10:58:21;;;;;;;15.05;6.20;;;;;;;26.75;60.14;94798.42;1795089;80;21018;-60
2021/08/05 11:00:53;;;;;;;17.82;6.30;;;;;;;26.96;61.86;94791.44;1795620;80;21003;-60
2021/08/05 11:03:47;;;;;;;16.73;5.60;;;;;;;27.29;55.80;94767.05;1795839;80;21453;-60
2021/08/05 11:06:25;;;;;;;16.73;5.58;;;;;;;27.56;55.42;94758.02;1794499;80;21472;-60
2021/08/05 11:08:52;;;;;;;14.78;5.25;;;;;;;28.04;53.15;94754.64;1793565;80;21027;-60
2021/08/05 11:11:27;;;;;;;14.63;5.08;;;;;;;28.08;53.70;94756.05;1795451;80;21401;-60
2021/08/05 11:14:05;;;;;;;22.30;5.87;;;;;;;28.29;53.05;94742.14;1795376;80;21006;-60
2021/08/05 11:17:01;;;;;;;19.35;5.97;;;;;;;28.75;53.31;94736.55;1795429;80;21487;-61
2021/08/05 11:19:36;;;;;;;24.72;6.08;;;;;;;29.23;52.42;94722.42;1795379;80;21007;-60
2021/08/05 11:22:36;;;;;;;16.50;5.45;;;;;;;29.21;49.69;94763.84;1795461;80;20994;-60
2021/08/05 11:25:03;;;;;;;12.85;4.60;;;;;;;28.69;46.95;94814.90;1794277;80;21512;-60
2021/08/05 11:27:30;;;;;;;16.55;4.87;;;;;;;28.12;47.83;94813.02;1786802;80;21011;-60
2021/08/05 11:29:56;;;;;;;13.20;3.95;;;;;;;27.53;44.61;94805.76;1787156;80;21497;-60
2021/08/05 11:32:28;;;;;;;10.18;3.77;;;;;;;27.19;43.85;94822.61;1787380;80;21003;-60
2021/08/05 11:35:06;;;;;;;17.20;5.20;;;;;;;26.62;44.75;94823.59;1787185;80;20968;-60
2021/08/05 11:37:34;;;;;;;15.00;5.90;;;;;;;26.30;47.27;94837.74;1786933;80;21039;-60
2021/08/05 11:40:05;;;;;;;14.10;4.95;;;;;;;25.91;48.44;94845.00;1786854;80;21015;-60
2021/08/05 11:42:34;;;;;;;12.33;5.80;;;;;;;25.65;49.90;94853.59;1787264;80;20995;-60